Time;durP1;ratioP1;P1;durP2;ratioP2;P2;SDS_P1;SDS_P2;PMS_P1;PMS_P2;Temp;Humidity;BMP_temperature;BMP_pressure;BME280_temperature;BME280_humidity;BME280_pressure;Samples;Min_cycle;Max_cycle;Signal;HPM_P1;HPM_P2
2023/01/07 00:01:29;;;;;;;13.20;8.47;;;;;;;8.55;nan;102338.59;4925798;29;20443;-90
2023/01/07 00:04:07;;;;;;;21.97;9.13;;;;;;;8.54;nan;102342.34;4941292;29;20457;-90
2023/01/07 00:06:38;;;;;;;20.37;11.00;;;;;;;8.49;nan;102340.03;4884054;29;20453;-90
2023/01/07 00:09:11;;;;;;;9.37;6.60;;;;;;;8.50;nan;102347.19;4868804;29;20544;-91
2023/01/07 00:11:48;;;;;;;11.50;6.30;;;;;;;8.46;nan;102339.47;4883723;29;20453;-91
2023/01/07 00:14:17;;;;;;;9.13;6.10;;;;;;;8.41;nan;102336.31;4868576;29;20474;-90
2023/01/07 00:16:52;;;;;;;15.27;9.03;;;;;;;8.38;nan;102332.00;4868497;29;20450;-90
2023/01/07 00:19:21;;;;;;;10.43;5.33;;;;;;;8.32;nan;102329.81;4868548;29;20467;-90
2023/01/07 00:21:48;;;;;;;13.53;7.90;;;;;;;8.34;nan;102329.69;4883826;29;21016;-90
2023/01/07 00:24:16;;;;;;;15.83;9.87;;;;;;;8.31;nan;102331.66;4882144;29;20456;-90
2023/01/07 00:26:46;;;;;;;15.53;6.93;;;;;;;8.23;nan;102328.78;4921884;29;20452;-90
2023/01/07 00:29:17;;;;;;;12.63;7.93;;;;;;;8.20;nan;102318.16;4935825;29;20490;-90
2023/01/07 00:31:52;;;;;;;8.40;5.50;;;;;;;8.24;nan;102330.50;4941013;29;20435;-90
2023/01/07 00:34:22;;;;;;;11.27;7.53;;;;;;;8.21;nan;102319.88;4956920;29;20446;-90
2023/01/07 00:37:48;;;;;;;13.80;8.87;;;;;;;8.25;nan;102326.78;4940354;29;20458;-90
2023/01/07 00:39:39;;;;;;;12.40;7.87;;;;;;;8.21;nan;102330.78;4848785;29;20564;-90
2023/01/07 00:45:00;;;;;;;15.20;6.83;;;;;;;8.21;nan;102336.22;4835800;29;20456;-90
2023/01/07 00:47:29;;;;;;;9.93;6.13;;;;;;;8.14;nan;102324.16;4845784;29;20483;-90
2023/01/07 00:49:59;;;;;;;12.20;6.50;;;;;;;8.12;nan;102320.72;4831253;29;20443;-90
2023/01/07 00:52:28;;;;;;;15.13;7.93;;;;;;;8.09;nan;102323.69;4831016;29;20959;-90
2023/01/07 00:54:57;;;;;;;16.17;10.27;;;;;;;8.05;nan;102303.22;4830639;29;20450;-90
2023/01/07 00:57:26;;;;;;;24.43;10.23;;;;;;;8.10;nan;102311.81;4861607;29;20473;-90
2023/01/07 00:59:55;;;;;;;18.20;10.67;;;;;;;8.07;nan;102306.66;4852460;29;20438;-90
2023/01/07 01:02:24;;;;;;;15.27;9.70;;;;;;;8.05;nan;102316.84;4898203;29;20442;-90
2023/01/07 01:04:55;;;;;;;15.37;9.23;;;;;;;8.08;nan;102308.34;4920916;28;20451;-90
2023/01/07 01:07:29;;;;;;;13.60;7.40;;;;;;;8.03;nan;102305.22;4976303;28;20481;-90
2023/01/07 01:09:57;;;;;;;13.30;5.70;;;;;;;8.02;nan;102302.63;4943743;28;20504;-90
2023/01/07 01:12:24;;;;;;;16.80;8.63;;;;;;;8.03;nan;102305.22;4958969;28;20465;-90
2023/01/07 01:14:53;;;;;;;19.10;11.00;;;;;;;8.02;nan;102303.50;4959337;28;20928;-90
2023/01/07 01:17:22;;;;;;;19.50;11.03;;;;;;;8.04;nan;102306.94;4959099;28;20457;-90
2023/01/07 01:20:00;;;;;;;25.47;12.50;;;;;;;8.03;nan;102305.22;4958889;28;20454;-90
2023/01/07 01:22:28;;;;;;;18.10;10.90;;;;;;;8.00;nan;102297.31;4973205;28;20875;-90
2023/01/07 01:25:06;;;;;;;19.93;12.53;;;;;;;8.02;nan;102300.78;4959184;28;20516;-90
2023/01/07 01:27:35;;;;;;;23.57;13.10;;;;;;;8.01;nan;102290.88;4974911;28;20474;-90
2023/01/07 01:30:09;;;;;;;23.43;12.30;;;;;;;8.03;nan;102296.19;4959235;28;20446;-90
2023/01/07 01:33:00;;;;;;;19.57;12.37;;;;;;;8.06;nan;102302.22;4959370;28;20445;-94
2023/01/07 01:35:30;;;;;;;15.10;8.00;;;;;;;8.02;nan;102297.19;4919115;29;20452;-90
2023/01/07 01:37:59;;;;;;;10.80;7.70;;;;;;;8.01;nan;102301.78;4889013;29;20451;-90
2023/01/07 01:40:35;;;;;;;13.90;7.50;;;;;;;8.06;nan;102301.38;4888630;29;20463;-89
2023/01/07 01:43:29;;;;;;;12.73;7.97;;;;;;;8.03;nan;102278.00;4904382;29;20452;-90
2023/01/07 01:46:11;;;;;;;14.30;6.97;;;;;;;8.16;nan;102297.66;4919632;29;20463;-90
2023/01/07 01:48:47;;;;;;;14.43;7.33;;;;;;;8.16;nan;102311.25;4935219;29;20494;-90
2023/01/07 01:54:32;;;;;;;19.93;8.37;;;;;;;8.14;nan;102310.53;4935488;29;20997;-90
2023/01/07 01:57:01;;;;;;;18.67;7.57;;;;;;;8.15;nan;102309.53;4903979;29;20471;-90
2023/01/07 01:59:35;;;;;;;12.77;7.10;;;;;;;8.21;nan;102319.03;4915153;28;20442;-91
2023/01/07 02:02:10;;;;;;;13.03;7.73;;;;;;;8.21;nan;102309.00;4958864;28;20541;-90
2023/01/07 02:04:39;;;;;;;13.10;7.10;;;;;;;8.23;nan;102317.88;4943168;28;20457;-90
2023/01/07 02:07:11;;;;;;;13.00;8.27;;;;;;;8.30;nan;102318.16;4957921;28;20457;-91
2023/01/07 02:10:04;;;;;;;18.90;11.60;;;;;;;8.34;nan;102321.50;4958691;28;20563;-90
2023/01/07 02:12:51;;;;;;;20.23;12.50;;;;;;;8.39;nan;102321.97;4958293;28;20461;-90
2023/01/07 02:15:26;;;;;;;17.93;11.87;;;;;;;8.32;nan;102311.59;4975449;28;20446;-90
2023/01/07 02:18:48;;;;;;;19.20;11.80;;;;;;;8.40;nan;102319.09;4962289;28;20445;-90
2023/01/07 02:25:11;;;;;;;25.40;15.63;;;;;;;8.42;nan;102327.13;4920141;29;20830;-90
2023/01/07 02:28:01;;;;;;;22.63;12.80;;;;;;;8.41;nan;102330.84;4919760;29;20456;-90
2023/01/07 02:30:50;;;;;;;23.40;12.40;;;;;;;8.41;nan;102341.75;4901044;29;20501;-90
2023/01/07 02:37:34;;;;;;;18.10;11.77;;;;;;;8.42;nan;102341.63;4920664;29;20512;-90
2023/01/07 02:40:24;;;;;;;19.00;12.53;;;;;;;8.42;nan;102343.47;4936122;29;20935;-90
2023/01/07 02:43:26;;;;;;;22.53;12.57;;;;;;;8.40;nan;102350.91;4941860;29;20477;-90
2023/01/07 02:46:21;;;;;;;19.27;11.73;;;;;;;8.37;nan;102335.72;4938530;29;20444;-90
2023/01/07 02:48:48;;;;;;;20.93;11.80;;;;;;;8.36;nan;102342.16;4934707;29;20499;-90
2023/01/07 02:51:16;;;;;;;31.23;12.47;;;;;;;8.38;nan;102342.03;4919377;29;20460;-90
2023/01/07 02:53:56;;;;;;;20.83;13.30;;;;;;;8.37;nan;102352.06;4919695;29;21012;-90
2023/01/07 02:57:08;;;;;;;21.30;11.20;;;;;;;8.41;nan;102352.66;4956344;29;20822;-90
2023/01/07 02:59:50;;;;;;;21.47;12.17;;;;;;;8.42;nan;102349.78;4939087;29;20463;-90
2023/01/07 03:02:28;;;;;;;25.00;12.03;;;;;;;8.45;nan;102356.81;4932974;29;20466;-90
2023/01/07 03:04:57;;;;;;;17.87;11.57;;;;;;;8.47;nan;102354.78;4958484;29;20847;-90
2023/01/07 03:08:03;;;;;;;16.00;11.03;;;;;;;8.53;nan;102359.69;4958558;29;20438;-90
2023/01/07 03:10:46;;;;;;;19.77;12.60;;;;;;;8.57;nan;102350.22;4957986;29;20443;-90
2023/01/07 03:13:17;;;;;;;25.93;12.27;;;;;;;8.58;nan;102343.78;4942377;29;20517;-91
2023/01/07 03:15:55;;;;;;;17.43;12.10;;;;;;;8.59;nan;102340.91;4938396;29;20455;-90
2023/01/07 03:18:30;;;;;;;26.13;14.07;;;;;;;8.59;nan;102334.59;4939144;29;20443;-90
2023/01/07 03:21:23;;;;;;;17.40;13.50;;;;;;;8.60;nan;102330.88;4954376;28;20451;-90
2023/01/07 03:23:54;;;;;;;21.37;12.10;;;;;;;8.63;nan;102322.41;4939021;29;20444;-90
2023/01/07 03:26:30;;;;;;;22.47;14.53;;;;;;;8.62;nan;102317.97;4938502;29;20447;-90
2023/01/07 03:29:07;;;;;;;22.17;14.50;;;;;;;8.64;nan;102315.97;4938569;29;20480;-90
2023/01/07 03:32:21;;;;;;;42.60;25.67;;;;;;;8.67;nan;102323.84;4938597;29;20448;-90
2023/01/07 03:34:56;;;;;;;70.37;33.83;;;;;;;8.62;nan;102317.97;4935834;29;20460;-90
2023/01/07 03:37:46;;;;;;;27.40;17.63;;;;;;;8.70;nan;102318.09;4922938;29;20864;-90
2023/01/07 03:40:13;;;;;;;22.33;13.40;;;;;;;8.68;nan;102314.66;4922902;29;20495;-90
2023/01/07 03:42:49;;;;;;;25.60;13.47;;;;;;;8.67;nan;102310.22;4922693;29;20518;-90
2023/01/07 03:45:34;;;;;;;32.13;14.43;;;;;;;8.65;nan;102312.25;4923171;29;20460;-90
2023/01/07 03:48:10;;;;;;;26.10;13.70;;;;;;;8.62;nan;102309.78;4922718;29;20484;-90
2023/01/07 03:50:48;;;;;;;25.93;15.20;;;;;;;8.66;nan;102300.31;4923007;29;20459;-90
2023/01/07 03:53:24;;;;;;;21.93;14.43;;;;;;;8.64;nan;102291.44;4938237;29;21001;-90
2023/01/07 03:55:59;;;;;;;24.63;14.90;;;;;;;8.63;nan;102284.28;4922953;29;21015;-90
2023/01/07 03:58:28;;;;;;;20.63;12.70;;;;;;;8.53;nan;102275.22;4935036;29;20466;-90
2023/01/07 04:00:57;;;;;;;19.17;11.10;;;;;;;8.58;nan;102284.69;4941702;29;20505;-90
2023/01/07 04:03:25;;;;;;;19.47;11.63;;;;;;;8.53;nan;102275.22;4960588;28;20450;-91
2023/01/07 04:05:54;;;;;;;17.37;10.93;;;;;;;8.53;nan;102267.03;4961078;28;20847;-90
2023/01/07 04:08:37;;;;;;;18.50;11.17;;;;;;;8.48;nan;102261.16;4960249;28;20490;-90
2023/01/07 04:11:06;;;;;;;19.10;11.70;;;;;;;8.42;nan;102256.28;4976470;28;20518;-90
2023/01/07 04:13:34;;;;;;;18.80;9.90;;;;;;;8.44;nan;102262.47;4961028;28;20955;-91
2023/01/07 04:16:02;;;;;;;16.97;10.23;;;;;;;8.40;nan;102269.19;4960663;28;20508;-90
2023/01/07 04:18:30;;;;;;;18.40;10.20;;;;;;;8.30;nan;102253.66;4960263;28;20454;-91
2023/01/07 04:21:06;;;;;;;15.47;9.80;;;;;;;8.28;nan;102260.25;4960579;28;20458;-90
2023/01/07 04:23:36;;;;;;;22.37;10.70;;;;;;;8.29;nan;102257.38;4976327;28;20508;-90
2023/01/07 04:26:13;;;;;;;17.63;9.50;;;;;;;8.28;nan;102260.25;4975984;28;20462;-90
2023/01/07 04:28:42;;;;;;;13.70;9.73;;;;;;;8.20;nan;102257.38;4976298;28;20473;-89
2023/01/07 04:31:24;;;;;;;16.03;9.30;;;;;;;8.16;nan;102255.94;4978390;28;20469;-90
2023/01/07 04:33:55;;;;;;;20.73;10.40;;;;;;;8.12;nan;102244.47;4960387;28;20442;-91
2023/01/07 04:36:30;;;;;;;21.30;10.00;;;;;;;8.09;nan;102255.63;4960272;28;20928;-90
2023/01/07 04:39:02;;;;;;;12.87;8.10;;;;;;;8.10;nan;102257.34;4959004;28;20445;-90
2023/01/07 04:41:49;;;;;;;12.43;7.07;;;;;;;8.07;nan;102241.31;4976208;28;20457;-91
2023/01/07 04:44:58;;;;;;;9.97;6.37;;;;;;;8.03;nan;102239.00;4992101;28;20450;-90
2023/01/07 04:47:35;;;;;;;12.20;6.20;;;;;;;8.01;nan;102235.56;4976211;28;20493;-90
2023/01/07 04:50:15;;;;;;;17.93;6.70;;;;;;;7.91;nan;102214.63;4975774;28;20994;-90
2023/01/07 04:53:09;;;;;;;13.07;7.30;;;;;;;7.95;nan;102220.66;4960182;28;20849;-90
2023/01/07 04:55:53;;;;;;;16.83;8.37;;;;;;;7.90;nan;102215.63;4975897;28;20438;-90
2023/01/07 04:58:20;;;;;;;18.57;8.90;;;;;;;7.93;nan;102215.34;4987274;28;20473;-90
2023/01/07 05:00:51;;;;;;;11.43;6.87;;;;;;;7.87;nan;102206.91;4975552;28;20449;-90
2023/01/07 05:03:26;;;;;;;9.53;5.97;;;;;;;7.82;nan;102209.16;4975115;28;20462;-90
2023/01/07 05:05:56;;;;;;;14.33;6.47;;;;;;;7.81;nan;102202.00;4975218;28;20446;-90
2023/01/07 05:08:33;;;;;;;13.47;6.40;;;;;;;7.82;nan;102198.28;4975066;28;20486;-90
2023/01/07 05:11:20;;;;;;;18.70;7.00;;;;;;;7.82;nan;102210.03;4975896;28;20449;-90
2023/01/07 05:13:51;;;;;;;17.77;7.83;;;;;;;7.82;nan;102214.63;4975571;28;20948;-90
2023/01/07 05:16:25;;;;;;;17.03;8.40;;;;;;;7.80;nan;102213.88;4991183;28;20453;-90
2023/01/07 05:19:14;;;;;;;13.23;7.07;;;;;;;7.76;nan;102221.47;4959021;28;20453;-91
2023/01/07 05:21:51;;;;;;;15.23;6.27;;;;;;;7.71;nan;102212.00;4975263;28;20457;-90
2023/01/07 05:24:19;;;;;;;8.57;6.10;;;;;;;7.73;nan;102202.69;4981275;28;20453;-90
2023/01/07 05:26:51;;;;;;;9.83;5.90;;;;;;;7.79;nan;102199.41;4994435;28;20512;-90
2023/01/07 05:29:21;;;;;;;16.37;9.40;;;;;;;7.82;nan;102198.28;5010495;28;20473;-90
2023/01/07 05:32:14;;;;;;;18.37;11.50;;;;;;;7.85;nan;102203.44;4994309;28;20445;-90
2023/01/07 05:34:44;;;;;;;19.23;10.80;;;;;;;7.81;nan;102202.88;4980343;28;20521;-90
2023/01/07 05:37:31;;;;;;;15.27;9.20;;;;;;;7.83;nan;102206.31;4939893;29;21076;-90
2023/01/07 05:39:59;;;;;;;17.43;9.57;;;;;;;7.83;nan;102205.44;4955644;29;20441;-90
2023/01/07 05:42:29;;;;;;;21.50;10.57;;;;;;;7.79;nan;102202.16;4955518;29;20474;-90
2023/01/07 05:44:58;;;;;;;16.70;8.73;;;;;;;7.82;nan;102195.56;4955578;29;20439;-90
2023/01/07 05:47:36;;;;;;;22.50;8.80;;;;;;;7.85;nan;102198.00;4939713;29;20454;-90
2023/01/07 05:50:05;;;;;;;10.97;7.87;;;;;;;7.82;nan;102201.00;4955313;28;20486;-90
2023/01/07 05:52:33;;;;;;;15.37;8.30;;;;;;;7.82;nan;102209.16;4956214;28;20458;-90
2023/01/07 05:55:03;;;;;;;14.90;8.40;;;;;;;7.81;nan;102213.75;4958890;28;20453;-90
2023/01/07 05:57:30;;;;;;;14.60;8.13;;;;;;;7.84;nan;102207.19;4958959;28;20516;-90
2023/01/07 06:00:00;;;;;;;16.50;9.13;;;;;;;7.85;nan;102201.59;4962886;28;20491;-90
2023/01/07 06:02:34;;;;;;;18.80;9.10;;;;;;;7.86;nan;102199.72;4943127;28;20453;-90
2023/01/07 06:05:10;;;;;;;14.13;8.10;;;;;;;7.87;nan;102218.66;4943287;28;21006;-90
2023/01/07 06:07:37;;;;;;;16.13;10.00;;;;;;;7.85;nan;102219.78;4926897;28;20457;-90
2023/01/07 06:10:06;;;;;;;14.97;9.03;;;;;;;7.78;nan;102199.56;4942801;28;20515;-90
2023/01/07 06:12:34;;;;;;;12.43;8.67;;;;;;;7.86;nan;102221.50;4942953;28;20449;-90
2023/01/07 06:15:02;;;;;;;17.77;8.30;;;;;;;7.77;nan;102211.44;4958610;28;20438;-90
2023/01/07 06:17:30;;;;;;;14.90;9.33;;;;;;;7.88;nan;102233.97;4958769;28;20423;-90
2023/01/07 06:20:01;;;;;;;14.87;9.43;;;;;;;7.84;nan;102231.66;4942842;28;20442;-90
2023/01/07 06:22:29;;;;;;;33.17;17.00;;;;;;;7.84;nan;102237.97;4955649;28;20454;-90
2023/01/07 06:24:58;;;;;;;25.20;14.87;;;;;;;7.78;nan;102240.38;4942577;28;20508;-90
2023/01/07 06:27:26;;;;;;;19.30;9.50;;;;;;;7.74;nan;102253.41;4958367;28;20500;-90
2023/01/07 06:29:54;;;;;;;15.50;8.90;;;;;;;7.80;nan;102266.47;4941559;28;20910;-90
2023/01/07 06:32:22;;;;;;;9.80;6.40;;;;;;;7.82;nan;102269.03;4960278;28;20461;-90
2023/01/07 06:34:52;;;;;;;10.47;6.60;;;;;;;7.88;nan;102279.38;4961840;28;20788;-90
2023/01/07 06:37:30;;;;;;;131.90;68.77;;;;;;;7.94;nan;102284.25;4961634;28;20993;-90
2023/01/07 06:40:21;;;;;;;95.23;49.97;;;;;;;7.95;nan;102285.97;4977511;28;20460;-90
2023/01/07 06:42:49;;;;;;;63.90;35.63;;;;;;;7.94;nan;102278.81;4980449;28;20532;-89
2023/01/07 06:45:43;;;;;;;50.37;27.23;;;;;;;8.01;nan;102288.16;4962157;28;20515;-90
2023/01/07 06:48:23;;;;;;;35.00;21.13;;;;;;;8.02;nan;102294.47;4978070;28;20445;-90
2023/01/07 06:50:55;;;;;;;56.23;31.27;;;;;;;8.03;nan;102290.75;4959730;28;20995;-90
2023/01/07 06:53:40;;;;;;;69.90;41.17;;;;;;;8.08;nan;102308.34;4958513;28;20521;-91
2023/01/07 06:56:17;;;;;;;30.47;17.97;;;;;;;8.14;nan;102301.50;4958401;28;20537;-91
2023/01/07 06:58:44;;;;;;;23.37;12.57;;;;;;;8.14;nan;102296.06;4957949;28;21064;-91
2023/01/07 07:01:14;;;;;;;23.83;14.73;;;;;;;8.20;nan;102307.25;4942292;28;20476;-90
2023/01/07 07:03:43;;;;;;;22.43;13.23;;;;;;;8.24;nan;102297.81;4980913;28;20457;-90
2023/01/07 07:06:20;;;;;;;21.30;11.80;;;;;;;8.34;nan;102318.78;4949556;28;20457;-91
2023/01/07 07:09:07;;;;;;;19.40;11.50;;;;;;;8.39;nan;102311.91;4980574;28;20464;-91
2023/01/07 07:11:36;;;;;;;17.07;10.20;;;;;;;8.43;nan;102315.22;4965282;28;20445;-90
2023/01/07 07:14:10;;;;;;;19.77;9.90;;;;;;;8.46;nan;102304.91;4958712;28;20849;-90
2023/01/07 07:16:40;;;;;;;17.70;10.20;;;;;;;8.47;nan;102301.16;4984390;28;20455;-91
2023/01/07 07:19:09;;;;;;;15.23;9.77;;;;;;;8.52;nan;102309.78;4945522;28;20446;-90
2023/01/07 07:21:46;;;;;;;15.80;9.03;;;;;;;8.55;nan;102316.81;4977357;28;20442;-90
2023/01/07 07:24:15;;;;;;;18.97;11.33;;;;;;;8.54;nan;102315.09;4945229;28;20970;-90
2023/01/07 07:26:42;;;;;;;24.70;15.17;;;;;;;8.52;nan;102311.63;4945470;28;20501;-88
2023/01/07 07:29:11;;;;;;;29.90;15.83;;;;;;;8.53;nan;102297.00;4961466;28;20505;-88
2023/01/07 07:31:42;;;;;;;23.27;13.73;;;;;;;8.53;nan;102292.44;4945906;28;20446;-89
2023/01/07 07:34:31;;;;;;;19.57;13.03;;;;;;;8.59;nan;102301.91;4945377;28;20568;-89
2023/01/07 07:37:02;;;;;;;32.77;16.00;;;;;;;8.56;nan;102299.47;4961553;28;20924;-90
2023/01/07 07:39:41;;;;;;;23.17;13.37;;;;;;;8.51;nan;102293.56;4945610;28;20472;-89
2023/01/07 07:42:26;;;;;;;28.40;15.43;;;;;;;8.50;nan;102308.19;4977870;28;20851;-90
2023/01/07 07:44:53;;;;;;;50.00;26.63;;;;;;;8.49;nan;102306.47;4990883;28;20527;-91
2023/01/07 07:47:39;;;;;;;49.17;24.53;;;;;;;8.49;nan;102301.88;4964303;28;20512;-90
2023/01/07 07:50:14;;;;;;;32.80;17.10;;;;;;;8.52;nan;102311.63;4980929;28;20461;-91
2023/01/07 07:53:00;;;;;;;25.10;13.93;;;;;;;8.49;nan;102314.63;4980876;28;20453;-90
2023/01/07 07:55:39;;;;;;;18.00;11.83;;;;;;;8.46;nan;102306.78;4996467;28;20421;-90
2023/01/07 07:58:07;;;;;;;19.70;12.43;;;;;;;8.43;nan;102307.06;4976496;28;20477;-90
2023/01/07 08:00:38;;;;;;;16.13;10.80;;;;;;;8.42;nan;102298.03;4991547;28;20450;-90
2023/01/07 08:03:13;;;;;;;24.03;11.67;;;;;;;8.36;nan;102297.72;4979503;28;20445;-90
2023/01/07 08:05:47;;;;;;;22.93;11.93;;;;;;;8.37;nan;102304.88;4960737;28;20442;-90
2023/01/07 08:08:30;;;;;;;16.17;10.20;;;;;;;8.38;nan;102306.59;4976849;28;20430;-90
2023/01/07 08:11:15;;;;;;;18.00;10.37;;;;;;;8.42;nan;102317.09;4976347;28;20497;-89
2023/01/07 08:13:58;;;;;;;23.80;13.40;;;;;;;8.44;nan;102322.41;4975236;28;20452;-90
2023/01/07 08:16:29;;;;;;;41.03;21.07;;;;;;;8.48;nan;102315.63;4975858;28;20477;-90
2023/01/07 08:19:04;;;;;;;50.40;21.87;;;;;;;8.50;nan;102310.91;4976422;28;20448;-90
2023/01/07 08:21:33;;;;;;;36.83;17.40;;;;;;;8.50;nan;102303.59;4961708;28;20497;-90
2023/01/07 08:24:24;;;;;;;38.63;15.33;;;;;;;8.59;nan;102310.06;4941145;29;20455;-89
2023/01/07 08:26:54;;;;;;;30.40;15.37;;;;;;;8.62;nan;102301.63;4977949;28;20817;-89
2023/01/07 08:29:22;;;;;;;32.50;15.90;;;;;;;8.66;nan;102303.03;4961243;28;20482;-89
2023/01/07 08:32:25;;;;;;;30.20;17.10;;;;;;;8.71;nan;102302.59;4953212;28;20463;-92
2023/01/07 08:34:54;;;;;;;27.83;15.23;;;;;;;8.73;nan;102303.31;4983482;28;20449;-91
2023/01/07 08:37:24;;;;;;;31.27;17.90;;;;;;;8.71;nan;102300.75;4981753;28;20449;-91
2023/01/07 08:39:59;;;;;;;37.60;20.40;;;;;;;8.71;nan;102299.88;4947920;28;20534;-90
2023/01/07 08:49:05;;;;;;;31.30;17.60;;;;;;;8.80;nan;102299.91;4978957;28;20465;-90
2023/01/07 08:51:34;;;;;;;40.07;21.30;;;;;;;8.84;nan;102300.47;4984481;28;20438;-91
2023/01/07 08:54:02;;;;;;;42.70;20.80;;;;;;;8.91;nan;102301.59;4980231;28;20435;-90
2023/01/07 08:56:32;;;;;;;50.27;23.23;;;;;;;8.92;nan;102292.41;4964711;28;20439;-90
2023/01/07 08:59:00;;;;;;;40.13;22.80;;;;;;;8.96;nan;102300.16;4926206;29;20464;-91
2023/01/07 09:01:28;;;;;;;44.40;25.83;;;;;;;9.12;nan;102306.88;4910918;29;20433;-90
2023/01/07 09:04:16;;;;;;;54.77;29.80;;;;;;;9.20;nan;102312.47;4936658;29;20480;-90
2023/01/07 09:06:45;;;;;;;43.30;24.70;;;;;;;9.29;nan;102317.03;4919773;29;20456;-90
2023/01/07 09:09:16;;;;;;;27.53;18.80;;;;;;;9.38;nan;102320.78;4886086;29;20457;-90
2023/01/07 09:11:45;;;;;;;23.70;13.80;;;;;;;9.51;nan;102327.63;4874456;29;20463;-89
2023/01/07 09:21:51;;;;;;;17.67;9.80;;;;;;;10.05;nan;102329.56;4974971;28;20437;-92
2023/01/07 09:24:27;;;;;;;20.00;12.00;;;;;;;10.13;nan;102331.53;4975231;28;20457;-92
2023/01/07 09:26:56;;;;;;;30.10;18.07;;;;;;;10.20;nan;102319.00;4959951;28;21019;-91
2023/01/07 09:29:32;;;;;;;31.90;21.00;;;;;;;10.29;nan;102322.69;4959254;28;20450;-91
2023/01/07 09:32:03;;;;;;;28.03;17.00;;;;;;;10.51;nan;102333.22;4971660;28;20451;-91
2023/01/07 09:34:37;;;;;;;26.33;16.60;;;;;;;10.58;nan;102304.22;4965710;28;20463;-89
2023/01/07 09:37:13;;;;;;;44.53;18.37;;;;;;;10.78;nan;102312.25;4943380;28;20453;-89
2023/01/07 09:39:44;;;;;;;30.73;16.70;;;;;;;10.89;nan;102301.09;4958714;28;20464;-89
2023/01/07 09:42:14;;;;;;;29.67;18.57;;;;;;;11.05;nan;102315.78;4974403;28;20805;-90
2023/01/07 09:45:16;;;;;;;29.33;17.23;;;;;;;11.23;nan;102309.41;4985626;28;20465;-89
2023/01/07 09:47:47;;;;;;;31.53;17.90;;;;;;;11.42;nan;102311.94;4975722;28;20446;-87
2023/01/07 09:50:33;;;;;;;35.53;17.70;;;;;;;11.58;nan;102309.28;4974898;28;20847;-87
2023/01/07 09:53:04;;;;;;;30.47;16.20;;;;;;;11.76;nan;102307.38;4959285;28;20501;-88
2023/01/07 09:55:35;;;;;;;30.70;16.60;;;;;;;12.02;nan;102315.56;4995828;28;20476;-87
2023/01/07 09:58:03;;;;;;;30.10;18.17;;;;;;;12.22;nan;102320.78;4996842;28;20438;-88
2023/01/07 10:00:33;;;;;;;28.57;14.33;;;;;;;12.52;nan;102333.00;4978377;28;20453;-87
2023/01/07 10:03:45;;;;;;;31.57;14.20;;;;;;;12.96;nan;102326.25;4979918;28;20461;-86
2023/01/07 10:06:14;;;;;;;21.50;7.13;;;;;;;13.36;nan;102322.66;4910246;29;20599;-86
2023/01/07 10:09:13;;;;;;;13.80;3.53;;;;;;;13.64;nan;102331.38;4917455;29;20433;-88
2023/01/07 10:12:32;;;;;;;15.90;4.10;;;;;;;13.86;nan;102334.38;4906941;29;20449;-90
2023/01/07 10:15:11;;;;;;;12.30;3.27;;;;;;;14.01;nan;102332.63;4921841;29;20437;-88
2023/01/07 10:18:05;;;;;;;12.83;3.20;;;;;;;14.15;nan;102334.63;4903995;29;20445;-87
2023/01/07 10:20:41;;;;;;;6.60;1.77;;;;;;;14.31;nan;102334.56;4911015;29;20478;-88
2023/01/07 10:23:12;;;;;;;8.83;2.03;;;;;;;14.41;nan;102335.25;4900256;29;20953;-88
2023/01/07 10:25:51;;;;;;;18.80;2.73;;;;;;;14.50;nan;102333.28;4878296;29;20538;-89
2023/01/07 10:28:59;;;;;;;8.83;1.67;;;;;;;14.61;nan;102337.53;4865389;29;20454;-89
2023/01/07 10:31:57;;;;;;;6.90;1.97;;;;;;;14.79;nan;102343.63;4895112;29;20497;-88
2023/01/07 10:34:41;;;;;;;11.30;3.90;;;;;;;14.96;nan;102338.84;4879421;29;20464;-88
2023/01/07 10:37:30;;;;;;;14.90;4.30;;;;;;;15.07;nan;102347.53;4852810;29;20460;-88
2023/01/07 10:40:20;;;;;;;11.23;2.23;;;;;;;15.21;nan;102345.84;4900639;29;20449;-88
2023/01/07 10:43:22;;;;;;;7.90;1.47;;;;;;;15.36;nan;102351.44;4957643;28;20450;-88
2023/01/07 10:46:07;;;;;;;5.57;1.00;;;;;;;15.48;nan;102349.91;4978335;28;20453;-88
2023/01/07 10:49:03;;;;;;;5.40;1.20;;;;;;;15.61;nan;102352.06;4993655;28;20958;-88
2023/01/07 10:51:53;;;;;;;14.17;3.00;;;;;;;15.70;nan;102332.50;4996713;28;20484;-88
2023/01/07 10:54:35;;;;;;;2.47;0.77;;;;;;;15.88;nan;102349.53;4996919;28;20499;-88
2023/01/07 10:57:26;;;;;;;9.87;2.13;;;;;;;16.03;nan;102354.19;4996910;28;20464;-88
2023/01/07 10:59:56;;;;;;;11.23;3.20;;;;;;;16.13;nan;102338.22;4961348;28;20477;-89
2023/01/07 11:02:28;;;;;;;6.00;1.47;;;;;;;16.10;nan;102333.09;4945369;28;20814;-88
2023/01/07 11:04:56;;;;;;;6.20;2.47;;;;;;;16.07;nan;102322.44;4961637;28;20438;-88
2023/01/07 11:07:27;;;;;;;14.57;4.30;;;;;;;16.24;nan;102332.19;4976461;28;20458;-87
2023/01/07 11:10:03;;;;;;;5.13;1.47;;;;;;;16.27;nan;102331.81;4975675;28;20453;-88
2023/01/07 11:12:40;;;;;;;12.40;1.90;;;;;;;16.30;nan;102328.69;4973665;28;20447;-88
2023/01/07 11:15:23;;;;;;;10.03;1.33;;;;;;;16.44;nan;102325.03;4957984;28;20465;-88
2023/01/07 11:18:19;;;;;;;5.90;1.27;;;;;;;16.52;nan;102322.16;4970390;28;20445;-88
2023/01/07 11:20:51;;;;;;;10.53;1.10;;;;;;;16.67;nan;102324.91;4976432;28;20979;-88
2023/01/07 11:23:30;;;;;;;6.80;1.00;;;;;;;16.76;nan;102317.34;4961503;28;20793;-89
2023/01/07 11:26:16;;;;;;;13.53;1.30;;;;;;;16.81;nan;102298.28;4977409;28;20797;-88
2023/01/07 11:29:14;;;;;;;6.40;2.10;;;;;;;16.98;nan;102294.19;4969493;28;20480;-88
2023/01/07 11:32:04;;;;;;;5.93;1.10;;;;;;;17.10;nan;102303.69;4977337;28;20458;-89
2023/01/07 11:34:36;;;;;;;9.67;1.80;;;;;;;17.19;nan;102302.47;4976699;28;20442;-88
2023/01/07 11:37:04;;;;;;;4.00;1.30;;;;;;;17.26;nan;102292.34;4961182;28;20446;-89
2023/01/07 11:39:33;;;;;;;5.80;1.67;;;;;;;17.34;nan;102282.19;4960717;28;20461;-88
2023/01/07 11:45:10;;;;;;;2.50;1.03;;;;;;;17.46;nan;102267.63;4963833;28;20454;-89
2023/01/07 11:47:58;;;;;;;12.57;1.83;;;;;;;17.51;nan;102267.84;4976514;28;20456;-90
2023/01/07 11:50:42;;;;;;;4.30;1.00;;;;;;;17.55;nan;102257.25;4976982;28;20894;-90
2023/01/07 11:53:37;;;;;;;8.50;1.20;;;;;;;17.64;nan;102261.59;4960299;28;20822;-90
2023/01/07 11:56:20;;;;;;;10.00;1.40;;;;;;;17.76;nan;102264.63;4993226;28;20441;-89
2023/01/07 12:03:41;;;;;;;9.20;1.57;;;;;;;17.99;nan;102256.88;4977998;28;20414;-90
2023/01/07 12:37:49;;;;;;;6.00;0.93;;;;;;;18.49;nan;102244.47;4977042;28;20426;-89
2023/01/07 12:48:17;;;;;;;3.50;0.70;;;;;;;18.39;nan;102238.50;4976970;28;20453;-91
2023/01/07 12:55:19;;;;;;;9.83;1.40;;;;;;;18.65;nan;102226.69;4977100;28;20500;-91
2023/01/07 13:06:23;;;;;;;7.43;1.17;;;;;;;19.30;nan;102211.94;4879850;29;20459;-90
2023/01/07 13:12:42;;;;;;;5.30;0.70;;;;;;;19.71;nan;102210.81;4879395;29;20494;-89
2023/01/07 13:15:26;;;;;;;3.97;0.70;;;;;;;19.78;nan;102205.25;4863816;29;20458;-90
2023/01/07 13:18:01;;;;;;;2.80;0.77;;;;;;;19.71;nan;102209.97;4879412;29;20455;-89
2023/01/07 13:21:07;;;;;;;9.53;1.00;;;;;;;19.62;nan;102198.28;4864737;29;20457;-89
2023/01/07 13:39:16;;;;;;;7.90;0.87;;;;;;;19.44;nan;102164.78;4956689;29;20398;-90
2023/01/07 13:42:06;;;;;;;3.50;0.70;;;;;;;19.30;nan;102181.44;4971515;28;20443;-89
2023/01/07 13:45:21;;;;;;;11.13;0.57;;;;;;;19.08;nan;102173.59;4966675;28;20440;-89
2023/01/07 13:47:58;;;;;;;5.70;1.10;;;;;;;18.73;nan;102150.81;4952335;29;20460;-89
2023/01/07 13:51:00;;;;;;;5.10;0.90;;;;;;;18.60;nan;102166.38;4932204;29;20491;-90
2023/01/07 13:57:33;;;;;;;8.37;0.80;;;;;;;18.22;nan;102159.69;4937395;29;20432;-89
2023/01/07 14:00:26;;;;;;;7.17;0.80;;;;;;;18.18;nan;102148.19;4951925;29;20443;-90
2023/01/07 14:03:32;;;;;;;7.73;0.90;;;;;;;18.11;nan;102154.75;4952122;29;20799;-90
2023/01/07 14:14:58;;;;;;;7.63;1.30;;;;;;;17.79;nan;102159.13;4975496;28;20410;-90
2023/01/07 14:21:40;;;;;;;8.13;1.00;;;;;;;17.71;nan;102145.47;4975795;28;20445;-90
2023/01/07 14:24:40;;;;;;;7.23;1.30;;;;;;;17.82;nan;102155.94;4989816;28;20467;-89
2023/01/07 14:31:21;;;;;;;7.90;1.40;;;;;;;17.94;nan;102121.94;4975040;28;20453;-90
2023/01/07 14:38:18;;;;;;;6.57;0.80;;;;;;;18.04;nan;102140.06;4934973;29;20407;-91